sensor_id;sensor_type;location;lat;lon;timestamp;P1;durP1;ratioP1;P2;durP2;ratioP2
48813;SDS011;34634;44.108;3.074;2022-10-26T00:00:21;13.85;;;4.32;;
48813;SDS011;34634;44.108;3.074;2022-10-26T00:02:47;8.45;;;3.65;;
48813;SDS011;34634;44.108;3.074;2022-10-26T00:05:13;16.40;;;4.03;;
48813;SDS011;34634;44.108;3.074;2022-10-26T00:07:40;20.33;;;4.60;;
48813;SDS011;34634;44.108;3.074;2022-10-26T00:10:06;14.77;;;4.40;;
48813;SDS011;34634;44.108;3.074;2022-10-26T00:12:32;14.15;;;4.40;;
48813;SDS011;34634;44.108;3.074;2022-10-26T00:14:59;13.68;;;4.07;;
48813;SDS011;34634;44.108;3.074;2022-10-26T00:17:25;14.35;;;4.10;;
48813;SDS011;34634;44.108;3.074;2022-10-26T00:19:51;17.67;;;5.13;;
48813;SDS011;34634;44.108;3.074;2022-10-26T00:22:19;14.98;;;4.38;;
48813;SDS011;34634;44.108;3.074;2022-10-26T00:24:45;13.95;;;4.53;;
48813;SDS011;34634;44.108;3.074;2022-10-26T00:27:12;12.43;;;4.50;;
48813;SDS011;34634;44.108;3.074;2022-10-26T00:29:38;11.38;;;4.15;;
48813;SDS011;34634;44.108;3.074;2022-10-26T00:32:04;13.73;;;5.18;;
48813;SDS011;34634;44.108;3.074;2022-10-26T00:34:31;17.45;;;4.85;;
48813;SDS011;34634;44.108;3.074;2022-10-26T00:36:57;16.80;;;4.68;;
48813;SDS011;34634;44.108;3.074;2022-10-26T00:39:23;15.10;;;4.78;;
48813;SDS011;34634;44.108;3.074;2022-10-26T00:41:50;16.50;;;4.65;;
48813;SDS011;34634;44.108;3.074;2022-10-26T00:47:01;19.33;;;5.78;;
48813;SDS011;34634;44.108;3.074;2022-10-26T00:49:27;15.43;;;4.93;;
48813;SDS011;34634;44.108;3.074;2022-10-26T00:51:54;16.83;;;4.93;;
48813;SDS011;34634;44.108;3.074;2022-10-26T00:54:20;19.40;;;5.75;;
48813;SDS011;34634;44.108;3.074;2022-10-26T00:56:47;11.63;;;5.22;;
48813;SDS011;34634;44.108;3.074;2022-10-26T00:59:15;13.75;;;4.95;;
48813;SDS011;34634;44.108;3.074;2022-10-26T01:01:45;14.68;;;5.25;;
48813;SDS011;34634;44.108;3.074;2022-10-26T01:04:13;14.52;;;4.57;;
48813;SDS011;34634;44.108;3.074;2022-10-26T01:06:40;14.40;;;5.07;;
48813;SDS011;34634;44.108;3.074;2022-10-26T01:09:07;13.50;;;5.47;;
48813;SDS011;34634;44.108;3.074;2022-10-26T01:11:34;13.07;;;5.00;;
48813;SDS011;34634;44.108;3.074;2022-10-26T01:14:01;10.18;;;4.32;;
48813;SDS011;34634;44.108;3.074;2022-10-26T01:21:32;13.82;;;4.82;;
48813;SDS011;34634;44.108;3.074;2022-10-26T01:24:10;21.67;;;5.47;;
48813;SDS011;34634;44.108;3.074;2022-10-26T01:31:57;15.10;;;5.10;;
48813;SDS011;34634;44.108;3.074;2022-10-26T01:37:25;17.30;;;5.28;;
48813;SDS011;34634;44.108;3.074;2022-10-26T01:39:53;16.40;;;5.13;;
48813;SDS011;34634;44.108;3.074;2022-10-26T01:42:23;19.90;;;4.85;;
48813;SDS011;34634;44.108;3.074;2022-10-26T01:44:52;15.30;;;5.20;;
48813;SDS011;34634;44.108;3.074;2022-10-26T01:47:19;12.73;;;4.68;;
48813;SDS011;34634;44.108;3.074;2022-10-26T01:49:50;12.55;;;4.35;;
48813;SDS011;34634;44.108;3.074;2022-10-26T01:52:18;14.93;;;5.57;;
48813;SDS011;34634;44.108;3.074;2022-10-26T01:54:45;16.42;;;4.85;;
48813;SDS011;34634;44.108;3.074;2022-10-26T01:57:12;11.00;;;5.10;;
48813;SDS011;34634;44.108;3.074;2022-10-26T02:12:13;15.13;;;5.93;;
48813;SDS011;34634;44.108;3.074;2022-10-26T02:14:48;14.60;;;5.15;;
48813;SDS011;34634;44.108;3.074;2022-10-26T02:17:38;14.23;;;5.60;;
48813;SDS011;34634;44.108;3.074;2022-10-26T02:20:03;13.63;;;5.28;;
48813;SDS011;34634;44.108;3.074;2022-10-26T02:22:36;13.93;;;5.28;;
48813;SDS011;34634;44.108;3.074;2022-10-26T02:25:06;11.95;;;5.85;;
48813;SDS011;34634;44.108;3.074;2022-10-26T02:27:33;20.27;;;6.63;;
48813;SDS011;34634;44.108;3.074;2022-10-26T02:30:02;17.10;;;6.47;;
48813;SDS011;34634;44.108;3.074;2022-10-26T02:32:31;15.23;;;6.15;;
48813;SDS011;34634;44.108;3.074;2022-10-26T02:34:59;14.48;;;6.38;;
48813;SDS011;34634;44.108;3.074;2022-10-26T02:37:27;15.88;;;6.38;;
48813;SDS011;34634;44.108;3.074;2022-10-26T02:39:54;13.32;;;6.53;;
48813;SDS011;34634;44.108;3.074;2022-10-26T02:42:21;18.63;;;6.50;;
48813;SDS011;34634;44.108;3.074;2022-10-26T02:44:49;22.25;;;7.50;;
48813;SDS011;34634;44.108;3.074;2022-10-26T02:47:16;15.90;;;6.53;;
48813;SDS011;34634;44.108;3.074;2022-10-26T02:49:43;19.40;;;6.93;;
48813;SDS011;34634;44.108;3.074;2022-10-26T02:52:16;17.02;;;6.63;;
48813;SDS011;34634;44.108;3.074;2022-10-26T02:54:52;16.27;;;6.80;;
48813;SDS011;34634;44.108;3.074;2022-10-26T02:57:22;15.38;;;6.90;;
48813;SDS011;34634;44.108;3.074;2022-10-26T02:59:49;16.33;;;6.63;;
48813;SDS011;34634;44.108;3.074;2022-10-26T03:02:16;16.52;;;6.72;;
48813;SDS011;34634;44.108;3.074;2022-10-26T03:04:43;17.05;;;6.65;;
48813;SDS011;34634;44.108;3.074;2022-10-26T03:07:10;21.27;;;7.68;;
48813;SDS011;34634;44.108;3.074;2022-10-26T03:09:36;18.63;;;6.88;;
48813;SDS011;34634;44.108;3.074;2022-10-26T03:12:02;19.00;;;6.88;;
48813;SDS011;34634;44.108;3.074;2022-10-26T03:14:29;19.13;;;7.70;;
48813;SDS011;34634;44.108;3.074;2022-10-26T03:16:55;21.67;;;7.43;;
48813;SDS011;34634;44.108;3.074;2022-10-26T03:19:21;16.30;;;7.55;;
48813;SDS011;34634;44.108;3.074;2022-10-26T03:21:48;16.80;;;7.30;;
48813;SDS011;34634;44.108;3.074;2022-10-26T03:24:14;19.30;;;7.10;;
48813;SDS011;34634;44.108;3.074;2022-10-26T03:26:40;20.52;;;7.00;;
48813;SDS011;34634;44.108;3.074;2022-10-26T03:29:07;18.33;;;7.00;;
48813;SDS011;34634;44.108;3.074;2022-10-26T03:31:33;22.05;;;7.57;;
48813;SDS011;34634;44.108;3.074;2022-10-26T03:34:00;24.90;;;7.30;;
48813;SDS011;34634;44.108;3.074;2022-10-26T03:36:26;22.50;;;8.18;;
48813;SDS011;34634;44.108;3.074;2022-10-26T03:38:52;17.77;;;7.90;;
48813;SDS011;34634;44.108;3.074;2022-10-26T03:41:19;26.45;;;7.85;;
48813;SDS011;34634;44.108;3.074;2022-10-26T03:43:45;20.80;;;8.43;;
48813;SDS011;34634;44.108;3.074;2022-10-26T03:46:12;18.40;;;7.95;;
48813;SDS011;34634;44.108;3.074;2022-10-26T03:48:39;19.27;;;7.70;;
48813;SDS011;34634;44.108;3.074;2022-10-26T03:51:05;21.67;;;7.60;;
48813;SDS011;34634;44.108;3.074;2022-10-26T03:53:32;21.10;;;8.13;;
48813;SDS011;34634;44.108;3.074;2022-10-26T03:55:58;22.88;;;8.57;;
48813;SDS011;34634;44.108;3.074;2022-10-26T03:58:24;20.98;;;8.40;;
48813;SDS011;34634;44.108;3.074;2022-10-26T04:00:51;20.95;;;8.52;;
48813;SDS011;34634;44.108;3.074;2022-10-26T04:03:17;20.83;;;8.70;;
48813;SDS011;34634;44.108;3.074;2022-10-26T04:05:43;17.98;;;7.90;;
48813;SDS011;34634;44.108;3.074;2022-10-26T04:08:10;20.20;;;8.52;;
48813;SDS011;34634;44.108;3.074;2022-10-26T04:10:36;20.83;;;9.15;;
48813;SDS011;34634;44.108;3.074;2022-10-26T04:13:02;24.02;;;8.27;;
48813;SDS011;34634;44.108;3.074;2022-10-26T04:15:29;22.63;;;8.88;;
48813;SDS011;34634;44.108;3.074;2022-10-26T04:17:56;20.90;;;9.10;;
48813;SDS011;34634;44.108;3.074;2022-10-26T04:20:22;24.08;;;8.68;;
48813;SDS011;34634;44.108;3.074;2022-10-26T04:22:55;22.58;;;8.40;;
48813;SDS011;34634;44.108;3.074;2022-10-26T04:25:22;19.75;;;8.73;;
48813;SDS011;34634;44.108;3.074;2022-10-26T04:27:48;21.30;;;9.10;;
48813;SDS011;34634;44.108;3.074;2022-10-26T04:30:14;23.05;;;9.38;;
48813;SDS011;34634;44.108;3.074;2022-10-26T04:32:41;21.27;;;9.50;;
48813;SDS011;34634;44.108;3.074;2022-10-26T04:35:07;25.27;;;9.68;;
48813;SDS011;34634;44.108;3.074;2022-10-26T04:37:33;20.85;;;9.18;;
48813;SDS011;34634;44.108;3.074;2022-10-26T04:40:00;24.13;;;8.65;;
48813;SDS011;34634;44.108;3.074;2022-10-26T04:42:26;19.38;;;8.60;;
48813;SDS011;34634;44.108;3.074;2022-10-26T04:44:52;24.63;;;9.20;;
48813;SDS011;34634;44.108;3.074;2022-10-26T04:47:18;24.40;;;8.90;;
48813;SDS011;34634;44.108;3.074;2022-10-26T04:49:45;19.15;;;8.73;;
48813;SDS011;34634;44.108;3.074;2022-10-26T04:52:11;21.83;;;9.73;;
48813;SDS011;34634;44.108;3.074;2022-10-26T04:54:37;21.80;;;9.07;;
48813;SDS011;34634;44.108;3.074;2022-10-26T04:57:04;23.88;;;9.23;;
48813;SDS011;34634;44.108;3.074;2022-10-26T04:59:30;20.15;;;8.90;;
48813;SDS011;34634;44.108;3.074;2022-10-26T05:01:56;25.20;;;9.95;;
48813;SDS011;34634;44.108;3.074;2022-10-26T05:04:23;21.58;;;9.02;;
48813;SDS011;34634;44.108;3.074;2022-10-26T05:06:51;21.38;;;8.90;;
48813;SDS011;34634;44.108;3.074;2022-10-26T05:09:18;22.65;;;8.70;;
48813;SDS011;34634;44.108;3.074;2022-10-26T05:11:44;27.52;;;8.65;;
48813;SDS011;34634;44.108;3.074;2022-10-26T05:14:10;22.77;;;8.82;;
48813;SDS011;34634;44.108;3.074;2022-10-26T05:16:37;19.70;;;8.93;;
48813;SDS011;34634;44.108;3.074;2022-10-26T05:19:04;18.88;;;8.82;;
48813;SDS011;34634;44.108;3.074;2022-10-26T05:21:30;15.82;;;8.50;;
48813;SDS011;34634;44.108;3.074;2022-10-26T05:23:56;21.35;;;9.00;;
48813;SDS011;34634;44.108;3.074;2022-10-26T05:26:23;19.35;;;9.20;;
48813;SDS011;34634;44.108;3.074;2022-10-26T05:28:50;21.92;;;9.30;;
48813;SDS011;34634;44.108;3.074;2022-10-26T05:31:17;17.75;;;8.18;;
48813;SDS011;34634;44.108;3.074;2022-10-26T05:33:43;23.25;;;8.45;;
48813;SDS011;34634;44.108;3.074;2022-10-26T05:36:09;18.60;;;8.23;;
48813;SDS011;34634;44.108;3.074;2022-10-26T05:38:35;24.92;;;8.70;;
48813;SDS011;34634;44.108;3.074;2022-10-26T05:41:02;18.63;;;8.48;;
48813;SDS011;34634;44.108;3.074;2022-10-26T05:43:28;21.17;;;8.50;;
48813;SDS011;34634;44.108;3.074;2022-10-26T05:45:54;19.23;;;8.82;;
48813;SDS011;34634;44.108;3.074;2022-10-26T05:48:21;24.10;;;9.63;;
48813;SDS011;34634;44.108;3.074;2022-10-26T05:50:47;25.65;;;9.60;;
48813;SDS011;34634;44.108;3.074;2022-10-26T05:53:14;18.92;;;9.77;;
48813;SDS011;34634;44.108;3.074;2022-10-26T05:55:40;22.30;;;9.32;;
48813;SDS011;34634;44.108;3.074;2022-10-26T05:58:10;25.20;;;9.18;;
48813;SDS011;34634;44.108;3.074;2022-10-26T06:00:36;29.23;;;10.70;;
48813;SDS011;34634;44.108;3.074;2022-10-26T06:03:13;18.77;;;9.85;;
48813;SDS011;34634;44.108;3.074;2022-10-26T06:05:55;20.40;;;9.63;;
48813;SDS011;34634;44.108;3.074;2022-10-26T06:08:22;21.15;;;9.70;;
48813;SDS011;34634;44.108;3.074;2022-10-26T06:10:49;19.70;;;9.60;;
48813;SDS011;34634;44.108;3.074;2022-10-26T06:13:16;18.38;;;8.60;;
48813;SDS011;34634;44.108;3.074;2022-10-26T06:15:46;18.80;;;9.07;;
48813;SDS011;34634;44.108;3.074;2022-10-26T06:23:17;22.08;;;9.70;;
48813;SDS011;34634;44.108;3.074;2022-10-26T06:31:11;21.88;;;8.93;;
48813;SDS011;34634;44.108;3.074;2022-10-26T06:33:38;22.05;;;8.05;;
48813;SDS011;34634;44.108;3.074;2022-10-26T06:36:13;19.48;;;8.52;;
48813;SDS011;34634;44.108;3.074;2022-10-26T06:38:43;25.20;;;9.93;;
48813;SDS011;34634;44.108;3.074;2022-10-26T06:41:13;20.70;;;8.93;;
48813;SDS011;34634;44.108;3.074;2022-10-26T06:43:40;17.05;;;8.00;;
48813;SDS011;34634;44.108;3.074;2022-10-26T06:51:23;16.40;;;7.82;;
48813;SDS011;34634;44.108;3.074;2022-10-26T06:53:52;17.35;;;6.65;;
48813;SDS011;34634;44.108;3.074;2022-10-26T06:56:22;43.40;;;23.38;;
48813;SDS011;34634;44.108;3.074;2022-10-26T06:58:49;21.38;;;7.05;;
48813;SDS011;34634;44.108;3.074;2022-10-26T07:01:17;18.92;;;7.38;;
48813;SDS011;34634;44.108;3.074;2022-10-26T07:03:43;14.77;;;6.75;;
48813;SDS011;34634;44.108;3.074;2022-10-26T07:06:10;10.95;;;5.78;;
48813;SDS011;34634;44.108;3.074;2022-10-26T07:08:36;23.42;;;6.35;;
48813;SDS011;34634;44.108;3.074;2022-10-26T07:11:02;12.52;;;6.82;;
48813;SDS011;34634;44.108;3.074;2022-10-26T07:13:30;14.95;;;5.97;;
48813;SDS011;34634;44.108;3.074;2022-10-26T07:15:56;18.38;;;6.38;;
48813;SDS011;34634;44.108;3.074;2022-10-26T07:18:22;20.20;;;6.05;;
48813;SDS011;34634;44.108;3.074;2022-10-26T07:20:48;15.48;;;6.63;;
48813;SDS011;34634;44.108;3.074;2022-10-26T07:23:15;18.17;;;6.15;;
48813;SDS011;34634;44.108;3.074;2022-10-26T07:25:41;23.83;;;6.85;;
48813;SDS011;34634;44.108;3.074;2022-10-26T07:28:08;13.82;;;4.88;;
48813;SDS011;34634;44.108;3.074;2022-10-26T07:30:35;12.40;;;4.82;;
48813;SDS011;34634;44.108;3.074;2022-10-26T07:33:06;14.55;;;5.00;;
48813;SDS011;34634;44.108;3.074;2022-10-26T07:35:32;12.02;;;4.72;;
48813;SDS011;34634;44.108;3.074;2022-10-26T07:37:59;12.50;;;4.53;;
48813;SDS011;34634;44.108;3.074;2022-10-26T07:40:25;16.00;;;4.78;;
48813;SDS011;34634;44.108;3.074;2022-10-26T07:42:54;19.25;;;4.72;;
48813;SDS011;34634;44.108;3.074;2022-10-26T07:45:21;20.27;;;4.78;;
48813;SDS011;34634;44.108;3.074;2022-10-26T07:47:48;17.08;;;4.45;;
48813;SDS011;34634;44.108;3.074;2022-10-26T07:50:15;27.58;;;4.65;;
48813;SDS011;34634;44.108;3.074;2022-10-26T07:52:41;11.32;;;4.07;;
48813;SDS011;34634;44.108;3.074;2022-10-26T07:55:08;14.60;;;3.75;;
48813;SDS011;34634;44.108;3.074;2022-10-26T07:57:35;14.27;;;3.72;;
48813;SDS011;34634;44.108;3.074;2022-10-26T08:00:02;21.60;;;4.20;;
48813;SDS011;34634;44.108;3.074;2022-10-26T08:02:29;20.50;;;4.22;;
48813;SDS011;34634;44.108;3.074;2022-10-26T08:04:55;10.40;;;4.18;;
48813;SDS011;34634;44.108;3.074;2022-10-26T08:07:21;13.05;;;3.97;;
48813;SDS011;34634;44.108;3.074;2022-10-26T08:09:50;14.48;;;4.60;;
48813;SDS011;34634;44.108;3.074;2022-10-26T08:12:17;14.05;;;4.15;;
48813;SDS011;34634;44.108;3.074;2022-10-26T08:14:43;18.08;;;4.40;;
48813;SDS011;34634;44.108;3.074;2022-10-26T08:17:10;22.45;;;4.80;;
48813;SDS011;34634;44.108;3.074;2022-10-26T08:19:36;19.92;;;4.60;;
48813;SDS011;34634;44.108;3.074;2022-10-26T08:22:02;16.52;;;4.80;;
48813;SDS011;34634;44.108;3.074;2022-10-26T08:24:29;13.45;;;4.43;;
48813;SDS011;34634;44.108;3.074;2022-10-26T08:26:55;19.45;;;6.38;;
48813;SDS011;34634;44.108;3.074;2022-10-26T08:29:21;17.25;;;5.70;;
48813;SDS011;34634;44.108;3.074;2022-10-26T08:31:48;20.92;;;5.25;;
48813;SDS011;34634;44.108;3.074;2022-10-26T08:34:14;17.65;;;4.97;;
48813;SDS011;34634;44.108;3.074;2022-10-26T08:36:41;17.23;;;5.15;;
48813;SDS011;34634;44.108;3.074;2022-10-26T08:39:07;18.15;;;4.63;;
48813;SDS011;34634;44.108;3.074;2022-10-26T08:41:36;17.70;;;4.70;;
48813;SDS011;34634;44.108;3.074;2022-10-26T08:46:44;20.88;;;5.50;;
48813;SDS011;34634;44.108;3.074;2022-10-26T08:49:21;15.57;;;4.70;;
48813;SDS011;34634;44.108;3.074;2022-10-26T08:51:50;12.40;;;4.68;;
48813;SDS011;34634;44.108;3.074;2022-10-26T08:54:20;13.50;;;4.38;;
48813;SDS011;34634;44.108;3.074;2022-10-26T08:56:49;14.20;;;4.27;;
48813;SDS011;34634;44.108;3.074;2022-10-26T08:59:17;21.00;;;4.47;;
48813;SDS011;34634;44.108;3.074;2022-10-26T09:01:51;18.10;;;5.32;;
48813;SDS011;34634;44.108;3.074;2022-10-26T09:04:17;11.80;;;4.20;;
48813;SDS011;34634;44.108;3.074;2022-10-26T09:15:04;14.52;;;4.50;;
48813;SDS011;34634;44.108;3.074;2022-10-26T09:23:01;19.33;;;4.30;;
48813;SDS011;34634;44.108;3.074;2022-10-26T09:25:37;15.35;;;4.82;;
48813;SDS011;34634;44.108;3.074;2022-10-26T09:28:03;12.70;;;4.40;;
48813;SDS011;34634;44.108;3.074;2022-10-26T09:30:32;18.20;;;4.45;;
48813;SDS011;34634;44.108;3.074;2022-10-26T09:33:01;14.88;;;4.32;;
48813;SDS011;34634;44.108;3.074;2022-10-26T09:38:16;17.52;;;4.35;;
48813;SDS011;34634;44.108;3.074;2022-10-26T09:40:47;14.38;;;4.25;;
48813;SDS011;34634;44.108;3.074;2022-10-26T09:43:17;15.65;;;4.15;;
48813;SDS011;34634;44.108;3.074;2022-10-26T09:45:52;19.85;;;4.57;;
48813;SDS011;34634;44.108;3.074;2022-10-26T09:50:46;16.65;;;4.53;;
48813;SDS011;34634;44.108;3.074;2022-10-26T09:53:13;17.33;;;5.40;;
48813;SDS011;34634;44.108;3.074;2022-10-26T09:55:49;14.75;;;4.32;;
48813;SDS011;34634;44.108;3.074;2022-10-26T09:58:20;14.57;;;4.28;;
48813;SDS011;34634;44.108;3.074;2022-10-26T10:00:49;16.92;;;4.13;;
48813;SDS011;34634;44.108;3.074;2022-10-26T10:03:17;23.55;;;4.82;;
48813;SDS011;34634;44.108;3.074;2022-10-26T10:05:44;19.50;;;4.47;;
48813;SDS011;34634;44.108;3.074;2022-10-26T10:10:36;18.33;;;4.07;;
48813;SDS011;34634;44.108;3.074;2022-10-26T10:13:13;18.83;;;4.30;;
48813;SDS011;34634;44.108;3.074;2022-10-26T10:15:40;20.20;;;4.45;;
48813;SDS011;34634;44.108;3.074;2022-10-26T10:18:19;12.43;;;4.28;;
48813;SDS011;34634;44.108;3.074;2022-10-26T10:23:12;19.25;;;4.32;;
48813;SDS011;34634;44.108;3.074;2022-10-26T10:25:49;23.15;;;4.97;;
48813;SDS011;34634;44.108;3.074;2022-10-26T10:28:26;16.27;;;4.47;;
48813;SDS011;34634;44.108;3.074;2022-10-26T10:30:55;17.17;;;4.30;;
48813;SDS011;34634;44.108;3.074;2022-10-26T10:36:03;17.70;;;4.32;;
48813;SDS011;34634;44.108;3.074;2022-10-26T10:38:35;17.52;;;5.22;;
48813;SDS011;34634;44.108;3.074;2022-10-26T10:41:02;12.05;;;4.13;;
48813;SDS011;34634;44.108;3.074;2022-10-26T10:43:29;15.60;;;5.10;;
48813;SDS011;34634;44.108;3.074;2022-10-26T10:45:56;14.50;;;4.68;;
48813;SDS011;34634;44.108;3.074;2022-10-26T10:48:24;18.23;;;5.35;;
48813;SDS011;34634;44.108;3.074;2022-10-26T10:53:21;19.52;;;4.05;;
48813;SDS011;34634;44.108;3.074;2022-10-26T10:58:26;16.15;;;4.10;;
48813;SDS011;34634;44.108;3.074;2022-10-26T11:05:55;20.98;;;4.63;;
48813;SDS011;34634;44.108;3.074;2022-10-26T11:08:30;15.30;;;3.88;;
48813;SDS011;34634;44.108;3.074;2022-10-26T11:13:42;16.75;;;4.22;;
48813;SDS011;34634;44.108;3.074;2022-10-26T11:18:42;15.20;;;4.47;;
48813;SDS011;34634;44.108;3.074;2022-10-26T11:21:21;18.55;;;4.28;;
48813;SDS011;34634;44.108;3.074;2022-10-26T11:26:28;18.98;;;4.70;;
48813;SDS011;34634;44.108;3.074;2022-10-26T11:29:02;23.65;;;5.20;;
48813;SDS011;34634;44.108;3.074;2022-10-26T11:31:30;12.98;;;4.32;;
48813;SDS011;34634;44.108;3.074;2022-10-26T11:36:30;12.70;;;4.20;;
48813;SDS011;34634;44.108;3.074;2022-10-26T11:39:04;18.50;;;4.97;;
48813;SDS011;34634;44.108;3.074;2022-10-26T11:41:39;12.50;;;4.38;;
48813;SDS011;34634;44.108;3.074;2022-10-26T11:46:36;16.17;;;4.15;;
48813;SDS011;34634;44.108;3.074;2022-10-26T11:56:45;21.40;;;4.28;;
48813;SDS011;34634;44.108;3.074;2022-10-26T11:59:19;25.80;;;5.07;;
48813;SDS011;34634;44.108;3.074;2022-10-26T12:01:49;19.50;;;4.78;;
48813;SDS011;34634;44.108;3.074;2022-10-26T12:04:16;17.38;;;4.68;;
48813;SDS011;34634;44.108;3.074;2022-10-26T12:06:44;19.90;;;4.72;;
48813;SDS011;34634;44.108;3.074;2022-10-26T12:09:21;16.15;;;4.43;;
48813;SDS011;34634;44.108;3.074;2022-10-26T12:11:55;12.70;;;4.00;;
48813;SDS011;34634;44.108;3.074;2022-10-26T12:14:25;21.08;;;4.50;;
48813;SDS011;34634;44.108;3.074;2022-10-26T12:19:28;24.27;;;4.88;;
48813;SDS011;34634;44.108;3.074;2022-10-26T12:21:56;22.45;;;4.18;;
48813;SDS011;34634;44.108;3.074;2022-10-26T12:24:24;16.08;;;4.15;;
48813;SDS011;34634;44.108;3.074;2022-10-26T12:26:57;18.02;;;4.55;;
48813;SDS011;34634;44.108;3.074;2022-10-26T12:29:26;22.02;;;4.43;;
48813;SDS011;34634;44.108;3.074;2022-10-26T12:31:53;24.83;;;5.38;;
48813;SDS011;34634;44.108;3.074;2022-10-26T12:34:24;20.10;;;4.65;;
48813;SDS011;34634;44.108;3.074;2022-10-26T12:37:10;16.67;;;4.10;;
48813;SDS011;34634;44.108;3.074;2022-10-26T12:39:46;13.55;;;4.05;;
48813;SDS011;34634;44.108;3.074;2022-10-26T12:50:00;19.40;;;4.20;;
48813;SDS011;34634;44.108;3.074;2022-10-26T12:52:37;18.52;;;4.20;;
48813;SDS011;34634;44.108;3.074;2022-10-26T13:00:16;20.17;;;4.53;;
48813;SDS011;34634;44.108;3.074;2022-10-26T13:07:45;15.98;;;4.30;;
48813;SDS011;34634;44.108;3.074;2022-10-26T13:12:44;15.00;;;3.50;;
48813;SDS011;34634;44.108;3.074;2022-10-26T13:15:19;15.50;;;3.63;;
48813;SDS011;34634;44.108;3.074;2022-10-26T13:18:00;17.80;;;4.57;;
48813;SDS011;34634;44.108;3.074;2022-10-26T13:20:28;16.80;;;4.32;;
48813;SDS011;34634;44.108;3.074;2022-10-26T13:22:54;16.50;;;3.97;;
48813;SDS011;34634;44.108;3.074;2022-10-26T13:25:23;17.58;;;4.32;;
48813;SDS011;34634;44.108;3.074;2022-10-26T13:32:58;23.15;;;4.35;;
48813;SDS011;34634;44.108;3.074;2022-10-26T13:35:25;17.08;;;4.03;;
48813;SDS011;34634;44.108;3.074;2022-10-26T13:37:53;15.95;;;3.90;;
48813;SDS011;34634;44.108;3.074;2022-10-26T13:40:23;25.27;;;4.57;;
48813;SDS011;34634;44.108;3.074;2022-10-26T13:45:20;19.67;;;4.22;;
48813;SDS011;34634;44.108;3.074;2022-10-26T13:47:49;19.63;;;4.13;;
48813;SDS011;34634;44.108;3.074;2022-10-26T13:50:24;14.77;;;4.40;;
48813;SDS011;34634;44.108;3.074;2022-10-26T13:52:52;23.85;;;4.47;;
48813;SDS011;34634;44.108;3.074;2022-10-26T13:55:25;19.08;;;4.55;;
48813;SDS011;34634;44.108;3.074;2022-10-26T14:00:21;18.60;;;4.20;;
48813;SDS011;34634;44.108;3.074;2022-10-26T14:02:48;14.70;;;4.15;;
48813;SDS011;34634;44.108;3.074;2022-10-26T14:05:15;21.15;;;4.10;;
48813;SDS011;34634;44.108;3.074;2022-10-26T14:07:50;19.92;;;4.75;;
48813;SDS011;34634;44.108;3.074;2022-10-26T14:10:36;18.70;;;4.72;;
48813;SDS011;34634;44.108;3.074;2022-10-26T14:13:11;19.58;;;4.45;;
48813;SDS011;34634;44.108;3.074;2022-10-26T14:15:41;20.23;;;4.90;;
48813;SDS011;34634;44.108;3.074;2022-10-26T14:18:11;17.35;;;4.30;;
48813;SDS011;34634;44.108;3.074;2022-10-26T14:20:40;15.40;;;3.95;;
48813;SDS011;34634;44.108;3.074;2022-10-26T14:23:25;14.93;;;4.03;;
48813;SDS011;34634;44.108;3.074;2022-10-26T14:25:52;18.02;;;4.45;;
48813;SDS011;34634;44.108;3.074;2022-10-26T14:28:29;13.32;;;4.07;;
48813;SDS011;34634;44.108;3.074;2022-10-26T14:31:38;17.30;;;4.22;;
48813;SDS011;34634;44.108;3.074;2022-10-26T14:33:45;20.75;;;4.60;;
48813;SDS011;34634;44.108;3.074;2022-10-26T14:36:12;14.57;;;4.43;;
48813;SDS011;34634;44.108;3.074;2022-10-26T14:38:43;20.20;;;4.68;;
48813;SDS011;34634;44.108;3.074;2022-10-26T14:41:13;17.65;;;3.85;;
48813;SDS011;34634;44.108;3.074;2022-10-26T14:43:40;22.85;;;4.47;;
48813;SDS011;34634;44.108;3.074;2022-10-26T14:46:14;26.25;;;5.30;;
48813;SDS011;34634;44.108;3.074;2022-10-26T14:48:51;14.35;;;4.35;;
48813;SDS011;34634;44.108;3.074;2022-10-26T14:51:19;19.83;;;4.00;;
48813;SDS011;34634;44.108;3.074;2022-10-26T14:53:47;14.20;;;4.57;;
48813;SDS011;34634;44.108;3.074;2022-10-26T14:58:46;11.68;;;4.30;;
48813;SDS011;34634;44.108;3.074;2022-10-26T15:03:55;15.15;;;4.30;;
48813;SDS011;34634;44.108;3.074;2022-10-26T15:08:58;21.50;;;4.63;;
48813;SDS011;34634;44.108;3.074;2022-10-26T15:11:25;17.20;;;4.63;;
48813;SDS011;34634;44.108;3.074;2022-10-26T15:13:52;19.40;;;4.57;;
48813;SDS011;34634;44.108;3.074;2022-10-26T15:16:37;29.58;;;4.95;;
48813;SDS011;34634;44.108;3.074;2022-10-26T15:19:08;18.17;;;4.53;;
48813;SDS011;34634;44.108;3.074;2022-10-26T15:24:11;16.23;;;4.43;;
48813;SDS011;34634;44.108;3.074;2022-10-26T15:26:43;16.33;;;4.57;;
48813;SDS011;34634;44.108;3.074;2022-10-26T15:29:32;14.63;;;4.15;;
48813;SDS011;34634;44.108;3.074;2022-10-26T15:31:59;15.25;;;4.07;;
48813;SDS011;34634;44.108;3.074;2022-10-26T15:34:25;20.05;;;4.50;;
48813;SDS011;34634;44.108;3.074;2022-10-26T15:36:51;17.90;;;4.75;;
48813;SDS011;34634;44.108;3.074;2022-10-26T15:39:18;24.63;;;4.97;;
48813;SDS011;34634;44.108;3.074;2022-10-26T15:41:44;17.05;;;4.38;;
48813;SDS011;34634;44.108;3.074;2022-10-26T15:44:18;12.43;;;4.10;;
48813;SDS011;34634;44.108;3.074;2022-10-26T15:46:45;17.23;;;4.60;;
48813;SDS011;34634;44.108;3.074;2022-10-26T15:49:16;18.67;;;4.82;;
48813;SDS011;34634;44.108;3.074;2022-10-26T15:51:46;17.00;;;4.57;;
48813;SDS011;34634;44.108;3.074;2022-10-26T15:54:12;13.68;;;4.22;;
48813;SDS011;34634;44.108;3.074;2022-10-26T15:56:39;18.77;;;5.15;;
48813;SDS011;34634;44.108;3.074;2022-10-26T15:59:15;20.92;;;5.38;;
48813;SDS011;34634;44.108;3.074;2022-10-26T16:01:41;16.10;;;4.72;;
48813;SDS011;34634;44.108;3.074;2022-10-26T16:04:09;18.67;;;5.32;;
48813;SDS011;34634;44.108;3.074;2022-10-26T16:06:37;14.93;;;5.07;;
48813;SDS011;34634;44.108;3.074;2022-10-26T16:09:05;17.98;;;5.07;;
48813;SDS011;34634;44.108;3.074;2022-10-26T16:11:31;18.20;;;4.90;;
48813;SDS011;34634;44.108;3.074;2022-10-26T16:13:58;20.95;;;5.15;;
48813;SDS011;34634;44.108;3.074;2022-10-26T16:16:24;20.40;;;5.10;;
48813;SDS011;34634;44.108;3.074;2022-10-26T16:18:51;24.27;;;5.28;;
48813;SDS011;34634;44.108;3.074;2022-10-26T16:21:18;24.15;;;5.05;;
48813;SDS011;34634;44.108;3.074;2022-10-26T16:23:45;19.35;;;5.38;;
48813;SDS011;34634;44.108;3.074;2022-10-26T16:26:12;16.33;;;5.45;;
48813;SDS011;34634;44.108;3.074;2022-10-26T16:28:38;21.88;;;5.90;;
48813;SDS011;34634;44.108;3.074;2022-10-26T16:31:06;17.88;;;5.50;;
48813;SDS011;34634;44.108;3.074;2022-10-26T16:33:32;20.88;;;5.97;;
48813;SDS011;34634;44.108;3.074;2022-10-26T16:36:00;18.23;;;5.45;;
48813;SDS011;34634;44.108;3.074;2022-10-26T16:38:26;20.50;;;5.13;;
48813;SDS011;34634;44.108;3.074;2022-10-26T16:41:14;16.63;;;5.57;;
48813;SDS011;34634;44.108;3.074;2022-10-26T16:43:42;16.70;;;5.10;;
48813;SDS011;34634;44.108;3.074;2022-10-26T16:46:16;20.15;;;5.47;;
48813;SDS011;34634;44.108;3.074;2022-10-26T16:48:43;24.17;;;6.00;;
48813;SDS011;34634;44.108;3.074;2022-10-26T16:53:37;13.70;;;5.30;;
48813;SDS011;34634;44.108;3.074;2022-10-26T16:56:04;20.35;;;5.70;;
48813;SDS011;34634;44.108;3.074;2022-10-26T16:58:30;20.10;;;6.18;;
48813;SDS011;34634;44.108;3.074;2022-10-26T17:00:57;24.98;;;6.13;;
48813;SDS011;34634;44.108;3.074;2022-10-26T17:03:23;16.38;;;5.88;;
48813;SDS011;34634;44.108;3.074;2022-10-26T17:05:53;16.70;;;5.95;;
48813;SDS011;34634;44.108;3.074;2022-10-26T17:08:20;22.23;;;5.80;;
48813;SDS011;34634;44.108;3.074;2022-10-26T17:10:46;22.48;;;6.35;;